sensor_id;sensor_type;location;lat;lon;timestamp;pressure;altitude;pressure_sealevel;temperature;humidity
50103;BME280;35993;52.604;10.078;2023-02-10T00:01:20;102943.28;;;1.21;100.00
50103;BME280;35993;52.604;10.078;2023-02-10T00:03:46;102948.34;;;1.26;100.00
50103;BME280;35993;52.604;10.078;2023-02-10T00:06:13;102940.50;;;1.23;100.00
50103;BME280;35993;52.604;10.078;2023-02-10T00:08:39;102944.88;;;1.24;100.00
50103;BME280;35993;52.604;10.078;2023-02-10T00:11:07;102952.84;;;1.25;100.00
50103;BME280;35993;52.604;10.078;2023-02-10T00:13:34;102955.41;;;1.27;100.00
50103;BME280;35993;52.604;10.078;2023-02-10T00:16:01;102965.25;;;1.26;100.00
50103;BME280;35993;52.604;10.078;2023-02-10T00:18:27;102959.03;;;1.26;100.00
50103;BME280;35993;52.604;10.078;2023-02-10T00:20:53;102952.84;;;1.25;100.00
50103;BME280;35993;52.604;10.078;2023-02-10T00:23:19;102960.09;;;1.23;100.00
50103;BME280;35993;52.604;10.078;2023-02-10T00:25:45;102952.84;;;1.25;100.00
50103;BME280;35993;52.604;10.078;2023-02-10T00:28:11;102959.03;;;1.26;100.00
50103;BME280;35993;52.604;10.078;2023-02-10T00:30:37;102956.47;;;1.24;100.00
50103;BME280;35993;52.604;10.078;2023-02-10T00:33:03;102957.41;;;1.23;100.00
50103;BME280;35993;52.604;10.078;2023-02-10T00:35:29;102960.00;;;1.25;100.00
50103;BME280;35993;52.604;10.078;2023-02-10T00:37:56;102960.75;;;1.27;100.00
50103;BME280;35993;52.604;10.078;2023-02-10T00:40:21;102966.00;;;1.28;100.00
50103;BME280;35993;52.604;10.078;2023-02-10T00:42:47;102967.84;;;1.28;100.00
50103;BME280;35993;52.604;10.078;2023-02-10T00:45:12;102967.72;;;1.29;100.00
50103;BME280;35993;52.604;10.078;2023-02-10T00:47:38;102966.84;;;1.29;100.00
50103;BME280;35993;52.604;10.078;2023-02-10T00:50:05;102974.03;;;1.28;100.00
50103;BME280;35993;52.604;10.078;2023-02-10T00:52:30;102975.66;;;1.31;100.00
50103;BME280;35993;52.604;10.078;2023-02-10T00:54:56;102981.00;;;1.31;100.00
50103;BME280;35993;52.604;10.078;2023-02-10T00:57:22;102986.25;;;1.33;100.00
50103;BME280;35993;52.604;10.078;2023-02-10T00:59:48;102986.34;;;1.31;100.00
50103;BME280;35993;52.604;10.078;2023-02-10T01:02:14;102991.41;;;1.36;100.00
50103;BME280;35993;52.604;10.078;2023-02-10T01:04:40;102986.16;;;1.34;100.00
50103;BME280;35993;52.604;10.078;2023-02-10T01:07:05;102978.31;;;1.31;100.00
50103;BME280;35993;52.604;10.078;2023-02-10T01:09:31;102980.06;;;1.32;100.00
50103;BME280;35993;52.604;10.078;2023-02-10T01:11:56;102980.16;;;1.30;100.00
50103;BME280;35993;52.604;10.078;2023-02-10T01:14:23;102980.16;;;1.30;100.00
50103;BME280;35993;52.604;10.078;2023-02-10T01:16:49;102973.81;;;1.31;100.00
50103;BME280;35993;52.604;10.078;2023-02-10T01:19:15;102972.75;;;1.34;100.00
50103;BME280;35993;52.604;10.078;2023-02-10T01:21:40;102968.19;;;1.36;100.00
50103;BME280;35993;52.604;10.078;2023-02-10T01:24:06;102958.44;;;1.35;100.00
50103;BME280;35993;52.604;10.078;2023-02-10T01:26:33;102959.31;;;1.36;100.00
50103;BME280;35993;52.604;10.078;2023-02-10T01:28:59;102951.34;;;1.34;100.00
50103;BME280;35993;52.604;10.078;2023-02-10T01:31:25;102955.75;;;1.35;100.00
50103;BME280;35993;52.604;10.078;2023-02-10T01:33:52;102959.38;;;1.34;100.00
50103;BME280;35993;52.604;10.078;2023-02-10T01:36:19;102962.72;;;1.38;100.00
50103;BME280;35993;52.604;10.078;2023-02-10T01:38:45;102964.56;;;1.37;100.00
50103;BME280;35993;52.604;10.078;2023-02-10T01:41:12;102966.47;;;1.35;100.00
50103;BME280;35993;52.604;10.078;2023-02-10T01:44:04;102957.47;;;1.36;100.00
50103;BME280;35993;52.604;10.078;2023-02-10T01:46:32;102965.41;;;1.38;100.00
50103;BME280;35993;52.604;10.078;2023-02-10T01:49:04;102961.00;;;1.37;100.00
50103;BME280;35993;52.604;10.078;2023-02-10T01:51:44;102964.22;;;1.42;100.00
50103;BME280;35993;52.604;10.078;2023-02-10T01:54:15;102960.91;;;1.38;100.00
50103;BME280;35993;52.604;10.078;2023-02-10T01:56:44;102965.41;;;1.38;100.00
50103;BME280;35993;52.604;10.078;2023-02-10T01:59:12;102956.41;;;1.39;100.00
50103;BME280;35993;52.604;10.078;2023-02-10T02:01:38;102961.66;;;1.40;100.00
50103;BME280;35993;52.604;10.078;2023-02-10T02:04:04;102960.72;;;1.41;100.00
50103;BME280;35993;52.604;10.078;2023-02-10T02:06:30;102950.94;;;1.40;100.00
50103;BME280;35993;52.604;10.078;2023-02-10T02:08:58;102958.88;;;1.42;100.00
50103;BME280;35993;52.604;10.078;2023-02-10T02:11:36;102956.97;;;1.44;100.00
50103;BME280;35993;52.604;10.078;2023-02-10T02:35:20;102949.72;;;1.46;100.00
50103;BME280;35993;52.604;10.078;2023-02-10T02:37:50;102950.00;;;1.41;100.00
50103;BME280;35993;52.604;10.078;2023-02-10T02:40:18;102954.94;;;1.47;100.00
50103;BME280;35993;52.604;10.078;2023-02-10T02:42:43;102947.03;;;1.46;100.00
50103;BME280;35993;52.604;10.078;2023-02-10T02:45:16;102948.66;;;1.49;100.00
50103;BME280;35993;52.604;10.078;2023-02-10T02:48:26;102954.84;;;1.49;100.00
50103;BME280;35993;52.604;10.078;2023-02-10T02:58:47;102957.53;;;1.49;100.00
50103;BME280;35993;52.604;10.078;2023-02-10T03:01:23;102959.25;;;1.50;100.00
50103;BME280;35993;52.604;10.078;2023-02-10T03:03:56;102953.88;;;1.50;100.00
50103;BME280;35993;52.604;10.078;2023-02-10T03:06:23;102953.00;;;1.50;100.00
50103;BME280;35993;52.604;10.078;2023-02-10T03:08:49;102957.41;;;1.51;100.00
50103;BME280;35993;52.604;10.078;2023-02-10T03:11:15;102952.94;;;1.51;100.00
50103;BME280;35993;52.604;10.078;2023-02-10T03:13:40;102951.00;;;1.53;100.00
50103;BME280;35993;52.604;10.078;2023-02-10T03:16:06;102955.50;;;1.53;100.00
50103;BME280;35993;52.604;10.078;2023-02-10T03:18:32;102957.97;;;1.56;100.00
50103;BME280;35993;52.604;10.078;2023-02-10T03:20:57;102965.91;;;1.57;100.00
50103;BME280;35993;52.604;10.078;2023-02-10T03:23:23;102966.53;;;1.61;100.00
50103;BME280;35993;52.604;10.078;2023-02-10T03:25:49;102963.13;;;1.59;100.00
50103;BME280;35993;52.604;10.078;2023-02-10T03:28:14;102959.50;;;1.60;100.00
50103;BME280;35993;52.604;10.078;2023-02-10T03:30:40;102965.81;;;1.59;100.00
50103;BME280;35993;52.604;10.078;2023-02-10T03:33:13;102972.78;;;1.61;100.00
50103;BME280;35993;52.604;10.078;2023-02-10T03:35:39;102969.22;;;1.61;100.00
50103;BME280;35993;52.604;10.078;2023-02-10T03:38:06;102960.34;;;1.60;100.00
50103;BME280;35993;52.604;10.078;2023-02-10T03:40:32;102960.44;;;1.59;100.00
50103;BME280;35993;52.604;10.078;2023-02-10T03:42:57;102965.59;;;1.62;100.00
50103;BME280;35993;52.604;10.078;2023-02-10T03:45:23;102963.78;;;1.62;100.00
50103;BME280;35993;52.604;10.078;2023-02-10T03:47:48;102965.28;;;1.67;100.00
50103;BME280;35993;52.604;10.078;2023-02-10T03:50:14;102966.91;;;1.69;100.00
50103;BME280;35993;52.604;10.078;2023-02-10T03:52:39;102968.63;;;1.70;100.00
50103;BME280;35993;52.604;10.078;2023-02-10T03:55:05;102976.66;;;1.70;100.00
50103;BME280;35993;52.604;10.078;2023-02-10T03:57:31;102966.03;;;1.69;100.00
50103;BME280;35993;52.604;10.078;2023-02-10T03:59:56;102973.00;;;1.71;100.00
50103;BME280;35993;52.604;10.078;2023-02-10T04:02:22;102982.03;;;1.70;100.00
50103;BME280;35993;52.604;10.078;2023-02-10T04:04:47;102984.78;;;1.69;100.00
50103;BME280;35993;52.604;10.078;2023-02-10T04:07:13;102975.78;;;1.70;100.00
50103;BME280;35993;52.604;10.078;2023-02-10T04:09:39;102972.91;;;1.73;100.00
50103;BME280;35993;52.604;10.078;2023-02-10T04:12:04;102983.81;;;1.70;100.00
50103;BME280;35993;52.604;10.078;2023-02-10T04:14:30;102986.19;;;1.74;100.00
50103;BME280;35993;52.604;10.078;2023-02-10T04:16:55;102968.31;;;1.75;100.00
50103;BME280;35993;52.604;10.078;2023-02-10T04:19:21;102973.47;;;1.78;100.00
50103;BME280;35993;52.604;10.078;2023-02-10T04:21:46;102966.38;;;1.77;100.00
50103;BME280;35993;52.604;10.078;2023-02-10T04:24:13;102969.06;;;1.77;100.00
50103;BME280;35993;52.604;10.078;2023-02-10T04:26:39;102969.81;;;1.79;100.00
50103;BME280;35993;52.604;10.078;2023-02-10T04:29:05;102965.22;;;1.81;100.00
50103;BME280;35993;52.604;10.078;2023-02-10T04:31:30;102969.63;;;1.82;100.00
50103;BME280;35993;52.604;10.078;2023-02-10T04:33:56;102976.59;;;1.85;100.00
50103;BME280;35993;52.604;10.078;2023-02-10T04:36:21;102976.47;;;1.86;100.00
50103;BME280;35993;52.604;10.078;2023-02-10T04:38:47;102978.19;;;1.87;100.00
50103;BME280;35993;52.604;10.078;2023-02-10T04:41:13;102965.56;;;1.89;100.00
50103;BME280;35993;52.604;10.078;2023-02-10T04:43:38;102959.34;;;1.89;100.00
50103;BME280;35993;52.604;10.078;2023-02-10T04:46:04;102966.72;;;1.85;100.00
50103;BME280;35993;52.604;10.078;2023-02-10T04:48:30;102963.19;;;1.85;100.00
50103;BME280;35993;52.604;10.078;2023-02-10T04:50:56;102966.81;;;1.84;100.00
50103;BME280;35993;52.604;10.078;2023-02-10T04:53:21;102969.50;;;1.84;100.00
50103;BME280;35993;52.604;10.078;2023-02-10T04:55:47;102972.19;;;1.84;100.00
50103;BME280;35993;52.604;10.078;2023-02-10T04:58:13;102967.47;;;1.87;100.00
50103;BME280;35993;52.604;10.078;2023-02-10T05:00:38;102961.69;;;1.80;100.00
50103;BME280;35993;52.604;10.078;2023-02-10T05:03:04;102964.25;;;1.82;100.00
50103;BME280;35993;52.604;10.078;2023-02-10T05:05:29;102963.59;;;1.78;100.00
50103;BME280;35993;52.604;10.078;2023-02-10T05:07:55;102961.03;;;1.77;100.00
50103;BME280;35993;52.604;10.078;2023-02-10T05:10:21;102960.16;;;1.76;100.00
50103;BME280;35993;52.604;10.078;2023-02-10T05:12:46;102967.56;;;1.73;100.00
50103;BME280;35993;52.604;10.078;2023-02-10T05:15:12;102955.13;;;1.72;100.00
50103;BME280;35993;52.604;10.078;2023-02-10T05:17:39;102962.28;;;1.71;100.00
50103;BME280;35993;52.604;10.078;2023-02-10T05:20:05;102965.84;;;1.72;100.00
50103;BME280;35993;52.604;10.078;2023-02-10T05:22:34;102962.28;;;1.71;100.00
50103;BME280;35993;52.604;10.078;2023-02-10T05:25:00;102977.28;;;1.74;100.00
50103;BME280;35993;52.604;10.078;2023-02-10T05:27:26;102975.59;;;1.73;100.00
50103;BME280;35993;52.604;10.078;2023-02-10T05:29:51;102981.81;;;1.73;100.00
50103;BME280;35993;52.604;10.078;2023-02-10T05:32:17;102985.31;;;1.74;100.00
50103;BME280;35993;52.604;10.078;2023-02-10T05:34:43;102989.00;;;1.73;100.00
50103;BME280;35993;52.604;10.078;2023-02-10T05:37:08;102994.22;;;1.74;100.00
50103;BME280;35993;52.604;10.078;2023-02-10T05:39:34;103004.94;;;1.74;100.00
50103;BME280;35993;52.604;10.078;2023-02-10T05:41:59;102997.75;;;1.75;100.00
50103;BME280;35993;52.604;10.078;2023-02-10T05:44:27;103004.72;;;1.77;100.00
50103;BME280;35993;52.604;10.078;2023-02-10T05:46:53;103009.25;;;1.77;100.00
50103;BME280;35993;52.604;10.078;2023-02-10T05:49:19;103005.59;;;1.78;100.00
50103;BME280;35993;52.604;10.078;2023-02-10T05:51:45;103010.84;;;1.79;100.00
50103;BME280;35993;52.604;10.078;2023-02-10T05:54:12;103014.59;;;1.77;100.00
50103;BME280;35993;52.604;10.078;2023-02-10T05:56:38;103020.78;;;1.77;100.00
50103;BME280;35993;52.604;10.078;2023-02-10T05:59:04;103019.06;;;1.76;100.00
50103;BME280;35993;52.604;10.078;2023-02-10T06:01:30;103030.56;;;1.78;100.00
50103;BME280;35993;52.604;10.078;2023-02-10T06:03:56;103025.19;;;1.78;100.00
50103;BME280;35993;52.604;10.078;2023-02-10T06:06:21;103022.41;;;1.80;100.00
50103;BME280;35993;52.604;10.078;2023-02-10T06:08:47;103020.69;;;1.79;100.00
50103;BME280;35993;52.604;10.078;2023-02-10T06:11:12;103021.47;;;1.81;100.00
50103;BME280;35993;52.604;10.078;2023-02-10T06:13:38;103021.69;;;1.78;100.00
50103;BME280;35993;52.604;10.078;2023-02-10T06:16:04;103025.09;;;1.80;100.00
50103;BME280;35993;52.604;10.078;2023-02-10T06:18:31;103026.59;;;1.84;100.00
50103;BME280;35993;52.604;10.078;2023-02-10T06:20:57;103031.22;;;1.82;100.00
50103;BME280;35993;52.604;10.078;2023-02-10T06:23:24;103032.94;;;1.83;100.00
50103;BME280;35993;52.604;10.078;2023-02-10T06:25:50;103044.38;;;1.85;100.00
50103;BME280;35993;52.604;10.078;2023-02-10T06:28:22;103039.13;;;1.84;100.00
50103;BME280;35993;52.604;10.078;2023-02-10T06:30:47;103054.38;;;1.83;100.00
50103;BME280;35993;52.604;10.078;2023-02-10T06:33:13;103049.00;;;1.83;100.00
50103;BME280;35993;52.604;10.078;2023-02-10T06:35:38;103051.47;;;1.86;100.00
50103;BME280;35993;52.604;10.078;2023-02-10T06:38:04;103055.22;;;1.84;100.00
50103;BME280;35993;52.604;10.078;2023-02-10T06:40:29;103065.94;;;1.84;100.00
50103;BME280;35993;52.604;10.078;2023-02-10T06:42:55;103057.88;;;1.84;100.00
50103;BME280;35993;52.604;10.078;2023-02-10T06:45:20;103063.25;;;1.84;100.00
50103;BME280;35993;52.604;10.078;2023-02-10T06:47:46;103054.38;;;1.83;100.00
50103;BME280;35993;52.604;10.078;2023-02-10T06:50:11;103060.78;;;1.80;100.00
50103;BME280;35993;52.604;10.078;2023-02-10T06:52:39;103054.66;;;1.78;100.00
50103;BME280;35993;52.604;10.078;2023-02-10T06:55:06;103055.72;;;1.76;100.00
50103;BME280;35993;52.604;10.078;2023-02-10T06:57:32;103047.78;;;1.74;100.00
50103;BME280;35993;52.604;10.078;2023-02-10T06:59:58;103047.13;;;1.71;100.00
50103;BME280;35993;52.604;10.078;2023-02-10T07:02:24;103052.59;;;1.69;100.00
50103;BME280;35993;52.604;10.078;2023-02-10T07:04:50;103047.97;;;1.71;100.00
50103;BME280;35993;52.604;10.078;2023-02-10T07:07:16;103058.69;;;1.71;100.00
50103;BME280;35993;52.604;10.078;2023-02-10T07:09:41;103057.06;;;1.69;100.00
50103;BME280;35993;52.604;10.078;2023-02-10T07:12:07;103059.31;;;1.62;100.00
50103;BME280;35993;52.604;10.078;2023-02-10T07:14:32;103057.00;;;1.56;100.00
50103;BME280;35993;52.604;10.078;2023-02-10T07:16:58;103061.53;;;1.55;100.00
50103;BME280;35993;52.604;10.078;2023-02-10T07:19:23;103059.50;;;1.59;100.00
50103;BME280;35993;52.604;10.078;2023-02-10T07:21:49;103062.38;;;1.56;100.00
50103;BME280;35993;52.604;10.078;2023-02-10T07:24:15;103063.94;;;1.45;100.00
50103;BME280;35993;52.604;10.078;2023-02-10T07:26:41;103065.94;;;1.42;100.00
50103;BME280;35993;52.604;10.078;2023-02-10T07:29:06;103071.28;;;1.42;100.00
50103;BME280;35993;52.604;10.078;2023-02-10T07:31:32;103075.03;;;1.39;100.00
50103;BME280;35993;52.604;10.078;2023-02-10T07:34:01;103061.19;;;1.33;100.00
50103;BME280;35993;52.604;10.078;2023-02-10T07:36:32;103069.03;;;1.36;100.00
50103;BME280;35993;52.604;10.078;2023-02-10T07:38:58;103080.69;;;1.35;100.00
50103;BME280;35993;52.604;10.078;2023-02-10T07:41:24;103084.22;;;1.35;100.00
50103;BME280;35993;52.604;10.078;2023-02-10T07:43:54;103085.16;;;1.34;100.00
50103;BME280;35993;52.604;10.078;2023-02-10T07:46:20;103082.50;;;1.34;100.00
50103;BME280;35993;52.604;10.078;2023-02-10T07:48:46;103076.41;;;1.32;100.00
50103;BME280;35993;52.604;10.078;2023-02-10T07:51:11;103082.31;;;1.37;100.00
50103;BME280;35993;52.604;10.078;2023-02-10T07:53:37;103083.53;;;1.46;100.00
50103;BME280;35993;52.604;10.078;2023-02-10T07:56:03;103084.19;;;1.50;100.00
50103;BME280;35993;52.604;10.078;2023-02-10T07:58:29;103086.84;;;1.50;100.00
50103;BME280;35993;52.604;10.078;2023-02-10T08:00:56;103087.34;;;1.56;100.00
50103;BME280;35993;52.604;10.078;2023-02-10T08:03:21;103099.78;;;1.57;100.00
50103;BME280;35993;52.604;10.078;2023-02-10T08:05:47;103095.00;;;1.62;100.00
50103;BME280;35993;52.604;10.078;2023-02-10T08:08:14;103094.88;;;1.64;100.00
50103;BME280;35993;52.604;10.078;2023-02-10T08:10:40;103100.34;;;1.62;100.00
50103;BME280;35993;52.604;10.078;2023-02-10T08:13:06;103102.03;;;1.63;100.00
50103;BME280;35993;52.604;10.078;2023-02-10T08:15:32;103101.84;;;1.67;100.00
50103;BME280;35993;52.604;10.078;2023-02-10T08:17:59;103110.63;;;1.69;100.00
50103;BME280;35993;52.604;10.078;2023-02-10T08:20:25;103110.44;;;1.72;100.00
50103;BME280;35993;52.604;10.078;2023-02-10T08:22:54;103103.94;;;1.76;100.00
50103;BME280;35993;52.604;10.078;2023-02-10T08:25:21;103110.13;;;1.76;100.00
50103;BME280;35993;52.604;10.078;2023-02-10T08:27:46;103112.63;;;1.79;100.00
50103;BME280;35993;52.604;10.078;2023-02-10T08:30:12;103100.56;;;1.87;100.00
50103;BME280;35993;52.604;10.078;2023-02-10T08:32:37;103106.56;;;1.90;100.00
50103;BME280;35993;52.604;10.078;2023-02-10T08:35:04;103104.19;;;1.86;100.00
50103;BME280;35993;52.604;10.078;2023-02-10T08:37:29;103103.97;;;1.89;100.00
50103;BME280;35993;52.604;10.078;2023-02-10T08:39:55;103105.50;;;1.93;100.00
50103;BME280;35993;52.604;10.078;2023-02-10T08:42:21;103107.09;;;1.95;100.00
50103;BME280;35993;52.604;10.078;2023-02-10T08:44:46;103110.66;;;1.96;100.00
50103;BME280;35993;52.604;10.078;2023-02-10T08:47:12;103106.94;;;1.99;100.00
50103;BME280;35993;52.604;10.078;2023-02-10T08:49:40;103111.97;;;2.03;100.00
50103;BME280;35993;52.604;10.078;2023-02-10T08:52:06;103110.91;;;2.06;100.00
50103;BME280;35993;52.604;10.078;2023-02-10T08:54:32;103107.47;;;2.04;100.00
50103;BME280;35993;52.604;10.078;2023-02-10T08:56:57;103114.63;;;2.03;100.00
50103;BME280;35993;52.604;10.078;2023-02-10T08:59:23;103119.59;;;2.09;100.00
50103;BME280;35993;52.604;10.078;2023-02-10T09:01:49;103118.41;;;2.13;100.00
50103;BME280;35993;52.604;10.078;2023-02-10T09:04:15;103119.31;;;2.14;100.00
50103;BME280;35993;52.604;10.078;2023-02-10T09:06:41;103125.41;;;2.16;100.00
50103;BME280;35993;52.604;10.078;2023-02-10T09:09:17;103115.56;;;2.17;100.00
50103;BME280;35993;52.604;10.078;2023-02-10T09:11:45;103122.31;;;2.22;100.00
50103;BME280;35993;52.604;10.078;2023-02-10T09:14:11;103126.19;;;2.31;100.00
50103;BME280;35993;52.604;10.078;2023-02-10T09:16:37;103126.56;;;2.39;100.00
50103;BME280;35993;52.604;10.078;2023-02-10T09:19:03;103119.91;;;2.45;100.00
50103;BME280;35993;52.604;10.078;2023-02-10T09:21:29;103129.28;;;2.52;100.00
50103;BME280;35993;52.604;10.078;2023-02-10T09:23:55;103134.13;;;2.60;100.00
50103;BME280;35993;52.604;10.078;2023-02-10T09:26:21;103117.81;;;2.63;100.00
50103;BME280;35993;52.604;10.078;2023-02-10T09:28:46;103129.19;;;2.67;100.00
50103;BME280;35993;52.604;10.078;2023-02-10T09:31:12;103130.03;;;2.67;100.00
50103;BME280;35993;52.604;10.078;2023-02-10T09:33:39;103120.91;;;2.70;100.00
50103;BME280;35993;52.604;10.078;2023-02-10T09:36:06;103128.88;;;2.71;100.00
50103;BME280;35993;52.604;10.078;2023-02-10T09:38:32;103132.19;;;2.75;100.00
50103;BME280;35993;52.604;10.078;2023-02-10T09:44:00;103128.44;;;2.77;100.00
50103;BME280;35993;52.604;10.078;2023-02-10T09:54:13;103132.66;;;2.94;100.00
50103;BME280;35993;52.604;10.078;2023-02-10T09:56:40;103133.19;;;3.00;100.00
50103;BME280;35993;52.604;10.078;2023-02-10T09:59:10;103139.72;;;3.08;100.00
50103;BME280;35993;52.604;10.078;2023-02-10T10:01:49;103135.84;;;3.13;100.00
50103;BME280;35993;52.604;10.078;2023-02-10T10:04:17;103141.66;;;3.19;100.00
50103;BME280;35993;52.604;10.078;2023-02-10T10:06:46;103141.53;;;3.21;100.00
50103;BME280;35993;52.604;10.078;2023-02-10T10:11:51;103140.03;;;3.30;100.00
50103;BME280;35993;52.604;10.078;2023-02-10T10:14:26;103135.19;;;3.35;100.00
50103;BME280;35993;52.604;10.078;2023-02-10T10:26:07;103136.53;;;3.66;100.00
50103;BME280;35993;52.604;10.078;2023-02-10T10:31:19;103136.66;;;3.65;100.00
50103;BME280;35993;52.604;10.078;2023-02-10T10:34:03;103149.84;;;3.68;100.00
50103;BME280;35993;52.604;10.078;2023-02-10T10:36:36;103145.94;;;3.72;100.00
50103;BME280;35993;52.604;10.078;2023-02-10T10:39:24;103136.50;;;3.79;100.00
50103;BME280;35993;52.604;10.078;2023-02-10T10:41:55;103131.31;;;3.89;100.00
50103;BME280;35993;52.604;10.078;2023-02-10T10:44:21;103134.38;;;3.96;100.00
50103;BME280;35993;52.604;10.078;2023-02-10T10:46:55;103126.59;;;4.04;100.00
50103;BME280;35993;52.604;10.078;2023-02-10T10:49:24;103125.81;;;4.15;100.00
50103;BME280;35993;52.604;10.078;2023-02-10T10:51:49;103126.09;;;4.23;100.00
50103;BME280;35993;52.604;10.078;2023-02-10T10:54:17;103121.50;;;4.36;100.00
50103;BME280;35993;52.604;10.078;2023-02-10T10:56:56;103119.59;;;4.50;100.00
50103;BME280;35993;52.604;10.078;2023-02-10T10:59:38;103104.81;;;4.55;100.00
50103;BME280;35993;52.604;10.078;2023-02-10T11:04:38;103109.66;;;4.39;100.00
50103;BME280;35993;52.604;10.078;2023-02-10T11:07:09;103117.59;;;4.40;100.00
50103;BME280;35993;52.604;10.078;2023-02-10T11:09:41;103107.72;;;4.52;100.00
50103;BME280;35993;52.604;10.078;2023-02-10T11:14:58;103098.38;;;4.81;100.00
50103;BME280;35993;52.604;10.078;2023-02-10T11:17:36;103103.41;;;4.97;100.00
50103;BME280;35993;52.604;10.078;2023-02-10T11:22:37;103110.28;;;5.01;100.00
50103;BME280;35993;52.604;10.078;2023-02-10T11:25:30;103106.47;;;5.03;100.00
50103;BME280;35993;52.604;10.078;2023-02-10T11:27:58;103109.16;;;5.03;100.00
50103;BME280;35993;52.604;10.078;2023-02-10T11:30:34;103104.91;;;5.12;100.00
50103;BME280;35993;52.604;10.078;2023-02-10T11:33:01;103100.59;;;5.09;100.00
50103;BME280;35993;52.604;10.078;2023-02-10T11:35:28;103088.59;;;5.02;100.00
50103;BME280;35993;52.604;10.078;2023-02-10T11:38:02;103088.88;;;5.11;100.00
50103;BME280;35993;52.604;10.078;2023-02-10T11:40:30;103089.34;;;5.04;100.00
50103;BME280;35993;52.604;10.078;2023-02-10T11:42:59;103086.53;;;5.06;100.00
50103;BME280;35993;52.604;10.078;2023-02-10T11:45:31;103081.91;;;5.19;100.00
50103;BME280;35993;52.604;10.078;2023-02-10T11:48:05;103084.94;;;5.26;100.00
50103;BME280;35993;52.604;10.078;2023-02-10T11:50:33;103073.56;;;5.22;100.00
50103;BME280;35993;52.604;10.078;2023-02-10T11:52:59;103075.50;;;5.20;100.00
50103;BME280;35993;52.604;10.078;2023-02-10T11:55:31;103070.13;;;5.20;100.00
50103;BME280;35993;52.604;10.078;2023-02-10T11:58:20;103067.19;;;5.23;100.00
50103;BME280;35993;52.604;10.078;2023-02-10T12:01:20;103076.59;;;5.29;100.00
50103;BME280;35993;52.604;10.078;2023-02-10T12:04:00;103072.59;;;5.23;100.00
50103;BME280;35993;52.604;10.078;2023-02-10T12:06:36;103072.81;;;5.32;100.00
50103;BME280;35993;52.604;10.078;2023-02-10T12:09:27;103063.59;;;5.46;100.00
50103;BME280;35993;52.604;10.078;2023-02-10T12:12:22;103065.31;;;5.58;100.00
50103;BME280;35993;52.604;10.078;2023-02-10T12:17:27;103060.03;;;5.68;100.00
50103;BME280;35993;52.604;10.078;2023-02-10T12:25:48;103064.19;;;5.61;100.00
50103;BME280;35993;52.604;10.078;2023-02-10T12:38:56;103049.13;;;5.58;99.21
50103;BME280;35993;52.604;10.078;2023-02-10T12:41:39;103049.47;;;5.65;98.77
50103;BME280;35993;52.604;10.078;2023-02-10T12:44:34;103043.75;;;5.58;98.58
50103;BME280;35993;52.604;10.078;2023-02-10T12:52:49;103040.38;;;5.77;97.80
50103;BME280;35993;52.604;10.078;2023-02-10T12:55:24;103038.28;;;5.81;98.09
50103;BME280;35993;52.604;10.078;2023-02-10T12:58:02;103033.75;;;5.81;97.23
50103;BME280;35993;52.604;10.078;2023-02-10T13:00:57;103023.56;;;5.85;96.83
50103;BME280;35993;52.604;10.078;2023-02-10T13:03:30;103033.84;;;5.91;96.59
50103;BME280;35993;52.604;10.078;2023-02-10T13:06:34;103038.75;;;5.86;97.25
50103;BME280;35993;52.604;10.078;2023-02-10T13:09:19;103040.53;;;5.76;96.68
50103;BME280;35993;52.604;10.078;2023-02-10T13:11:59;103019.97;;;5.63;96.19
50103;BME280;35993;52.604;10.078;2023-02-10T13:14:28;103016.66;;;5.60;96.83
50103;BME280;35993;52.604;10.078;2023-02-10T13:16:57;103017.41;;;5.62;97.19
50103;BME280;35993;52.604;10.078;2023-02-10T13:22:25;103020.53;;;5.34;97.96
50103;BME280;35993;52.604;10.078;2023-02-10T13:25:07;103013.06;;;5.38;98.28
50103;BME280;35993;52.604;10.078;2023-02-10T13:28:01;102999.81;;;5.46;98.19
50103;BME280;35993;52.604;10.078;2023-02-10T13:33:32;102992.88;;;5.65;96.80
50103;BME280;35993;52.604;10.078;2023-02-10T13:36:01;102988.59;;;5.62;96.37
50103;BME280;35993;52.604;10.078;2023-02-10T13:38:28;102988.97;;;5.57;96.22
50103;BME280;35993;52.604;10.078;2023-02-10T13:40:57;102987.28;;;5.56;96.18
50103;BME280;35993;52.604;10.078;2023-02-10T13:43:44;102973.94;;;5.55;95.36
50103;BME280;35993;52.604;10.078;2023-02-10T13:46:23;102976.13;;;5.61;95.55
50103;BME280;35993;52.604;10.078;2023-02-10T13:48:56;102988.41;;;5.54;95.14
50103;BME280;35993;52.604;10.078;2023-02-10T13:51:32;102985.56;;;5.55;94.99
50103;BME280;35993;52.604;10.078;2023-02-10T13:53:59;102980.28;;;5.65;94.77
50103;BME280;35993;52.604;10.078;2023-02-10T13:56:31;102978.06;;;5.70;94.30
50103;BME280;35993;52.604;10.078;2023-02-10T13:59:23;102983.78;;;5.77;94.40
50103;BME280;35993;52.604;10.078;2023-02-10T14:04:37;102975.59;;;5.67;93.76
50103;BME280;35993;52.604;10.078;2023-02-10T14:07:14;102973.22;;;5.53;93.73
50103;BME280;35993;52.604;10.078;2023-02-10T14:09:40;102966.75;;;5.44;94.20
50103;BME280;35993;52.604;10.078;2023-02-10T14:12:24;102966.00;;;5.42;94.14
50103;BME280;35993;52.604;10.078;2023-02-10T14:14:50;102964.97;;;5.33;93.65
50103;BME280;35993;52.604;10.078;2023-02-10T14:17:24;102970.59;;;5.30;93.97
50103;BME280;35993;52.604;10.078;2023-02-10T14:19:56;102971.94;;;5.36;93.89
50103;BME280;35993;52.604;10.078;2023-02-10T14:24:56;102962.34;;;5.43;93.57
50103;BME280;35993;52.604;10.078;2023-02-10T14:27:25;102968.47;;;5.45;93.61